createdAt,value
2022-08-12T00:00:35.960Z,101341.19
2022-08-12T00:03:22.281Z,101334.31
2022-08-12T00:06:08.932Z,101330.09
2022-08-12T00:08:57.439Z,101334.34
2022-08-12T00:11:45.517Z,101325.25
2022-08-12T00:14:31.997Z,101314.78
2022-08-12T00:17:18.109Z,101314.28
2022-08-12T00:20:04.352Z,101313.16
2022-08-12T00:22:52.978Z,101305.38
2022-08-12T00:26:21.452Z,101302.31
2022-08-12T00:29:02.212Z,101304.38
2022-08-12T00:31:48.348Z,101298.13
2022-08-12T00:34:34.850Z,101301.00
2022-08-12T00:37:21.624Z,101296.25
2022-08-12T00:40:10.769Z,101288.63
2022-08-12T00:42:41.678Z,101284.09
2022-08-12T00:45:10.334Z,101280.03
2022-08-12T00:47:38.869Z,101288.28
2022-08-12T00:50:06.999Z,101273.06
2022-08-12T00:52:35.850Z,101273.75
2022-08-12T00:55:05.444Z,101272.84
2022-08-12T00:57:36.901Z,101269.97
2022-08-12T01:00:12.480Z,101269.06
2022-08-12T01:02:42.579Z,101258.56
2022-08-12T01:05:31.893Z,101250.31
2022-08-12T01:08:18.313Z,101219.75
2022-08-12T01:11:06.087Z,101168.41
2022-08-12T01:13:38.864Z,101158.63
2022-08-12T01:16:08.112Z,101183.56
2022-08-12T01:18:38.958Z,101203.59
2022-08-12T01:21:09.157Z,101211.19
2022-08-12T01:23:55.540Z,101213.00
2022-08-12T01:26:25.317Z,101206.16
2022-08-12T01:28:58.904Z,101204.09
2022-08-12T01:31:29.379Z,101200.88
2022-08-12T01:34:36.040Z,101197.47
2022-08-12T01:37:02.137Z,101183.25
2022-08-12T01:39:31.026Z,101173.59
2022-08-12T01:42:08.827Z,101160.84
2022-08-12T01:44:37.588Z,101170.78
2022-08-12T01:47:13.906Z,101187.16
2022-08-12T01:49:45.053Z,101204.03
2022-08-12T01:52:44.851Z,101200.63
2022-08-12T01:55:14.499Z,101201.34
2022-08-12T01:57:58.194Z,101195.91
2022-08-12T02:00:54.927Z,101188.19
2022-08-12T02:04:03.270Z,101168.44
2022-08-12T02:07:07.341Z,101166.16
2022-08-12T02:10:05.270Z,101169.22
2022-08-12T02:12:47.848Z,101173.53
2022-08-12T02:15:36.423Z,101163.59
2022-08-12T02:18:06.711Z,101163.69
2022-08-12T02:20:51.772Z,101156.44
2022-08-12T02:23:28.137Z,101169.16
2022-08-12T02:26:01.146Z,101166.38
2022-08-12T02:28:29.447Z,101167.66
2022-08-12T02:31:01.990Z,101167.63
2022-08-12T02:33:30.842Z,101177.81
2022-08-12T02:36:01.313Z,101191.03
2022-08-12T02:38:31.185Z,101203.41
2022-08-12T02:41:03.157Z,101197.88
2022-08-12T02:43:37.221Z,101202.97
2022-08-12T02:46:14.874Z,101209.09
2022-08-12T02:49:14.705Z,101212.09
2022-08-12T02:51:46.503Z,101199.00
2022-08-12T02:54:13.768Z,101203.47
2022-08-12T02:56:50.441Z,101199.38
2022-08-12T02:59:21.962Z,101200.94
2022-08-12T03:01:53.485Z,101198.25
2022-08-12T03:04:26.621Z,101187.16
2022-08-12T03:07:14.615Z,101194.72
2022-08-12T03:10:03.557Z,101200.38
2022-08-12T03:12:49.146Z,101192.91
2022-08-12T03:15:23.919Z,101189.53
2022-08-12T03:18:26.119Z,101194.28
2022-08-12T03:20:42.522Z,101198.28
2022-08-12T03:23:21.629Z,101200.38
2022-08-12T03:25:58.886Z,101192.31
2022-08-12T03:28:48.067Z,101195.88
2022-08-12T03:31:15.428Z,101202.91
2022-08-12T03:34:01.459Z,101199.84
2022-08-12T03:36:35.751Z,101208.91
2022-08-12T03:39:35.514Z,101210.75
2022-08-12T03:42:41.375Z,101207.22
2022-08-12T03:45:52.688Z,101201.97
2022-08-12T03:48:39.186Z,101196.91
2022-08-12T03:51:26.236Z,101196.00
2022-08-12T03:54:12.806Z,101191.75
2022-08-12T03:56:59.084Z,101185.38
2022-08-12T03:59:45.068Z,101183.47
2022-08-12T04:02:16.295Z,101178.63
2022-08-12T04:04:47.289Z,101178.78
2022-08-12T04:07:17.079Z,101189.97
2022-08-12T04:09:46.003Z,101180.38
2022-08-12T04:12:33.239Z,101172.84
2022-08-12T04:15:01.918Z,101174.00
2022-08-12T04:17:29.384Z,101176.97
2022-08-12T04:19:57.957Z,101170.75
2022-08-12T04:22:30.476Z,101163.69
2022-08-12T04:25:02.867Z,101167.53
2022-08-12T04:27:32.033Z,101163.44
2022-08-12T04:30:30.098Z,101161.19
2022-08-12T04:32:50.533Z,101158.50
2022-08-12T04:35:18.375Z,101160.97
2022-08-12T04:37:59.002Z,101157.41
2022-08-12T04:40:31.355Z,101164.63
2022-08-12T04:43:02.926Z,101165.22
2022-08-12T04:45:37.503Z,101159.16
2022-08-12T04:48:05.972Z,101162.69
2022-08-12T04:50:36.581Z,101184.50
2022-08-12T04:53:07.037Z,101177.44
2022-08-12T04:55:38.589Z,101178.97
2022-08-12T04:58:07.361Z,101186.16
2022-08-12T05:00:36.144Z,101177.50
2022-08-12T05:03:05.437Z,101168.94
2022-08-12T05:05:36.345Z,101185.50
2022-08-12T05:08:07.208Z,101181.97
2022-08-12T05:10:35.632Z,101187.19
2022-08-12T05:13:08.378Z,101193.72
2022-08-12T05:16:05.070Z,101196.28
2022-08-12T05:18:29.301Z,101203.03
2022-08-12T05:20:59.158Z,101204.59
2022-08-12T05:23:27.127Z,101206.84
2022-08-12T05:25:57.953Z,101193.38
2022-08-12T05:28:27.177Z,101190.06
2022-08-12T05:30:56.985Z,101191.59
2022-08-12T05:33:33.226Z,101201.25
2022-08-12T05:36:00.439Z,101200.78
2022-08-12T05:38:46.440Z,101197.78
2022-08-12T05:41:20.312Z,101186.56
2022-08-12T05:43:48.412Z,101182.09
2022-08-12T05:46:19.607Z,101188.56
2022-08-12T05:48:49.428Z,101177.38
2022-08-12T05:51:17.703Z,101182.28
2022-08-12T05:53:45.656Z,101190.75
2022-08-12T05:56:24.988Z,101195.84
2022-08-12T05:58:53.468Z,101197.66
2022-08-12T06:02:08.956Z,101195.38
2022-08-12T06:04:09.890Z,101194.06
2022-08-12T06:06:41.811Z,101204.22
2022-08-12T06:09:11.414Z,101200.06
2022-08-12T06:11:41.460Z,101201.28
2022-08-12T06:14:28.861Z,101208.88
2022-08-12T06:16:57.656Z,101214.66
2022-08-12T06:20:26.541Z,101220.81
2022-08-12T06:22:15.399Z,101220.84
2022-08-12T06:24:42.604Z,101230.31
2022-08-12T06:27:09.837Z,101229.56
2022-08-12T06:30:09.732Z,101224.22
2022-08-12T06:32:29.832Z,101223.69
2022-08-12T06:35:23.824Z,101215.84
2022-08-12T06:37:48.921Z,101214.19
2022-08-12T06:40:37.737Z,101207.63
2022-08-12T06:43:05.617Z,101206.00
2022-08-12T06:45:45.452Z,101215.13
2022-08-12T06:48:13.989Z,101228.34
2022-08-12T06:50:42.451Z,101237.47
2022-08-12T06:53:11.247Z,101234.97
2022-08-12T06:55:39.440Z,101232.00
2022-08-12T06:58:28.768Z,101241.28
2022-08-12T07:00:57.937Z,101229.84
2022-08-12T07:03:29.996Z,101230.69
2022-08-12T07:06:00.047Z,101243.72
2022-08-12T07:08:29.270Z,101240.34
2022-08-12T07:10:59.176Z,101239.00
2022-08-12T07:14:10.125Z,101236.09
2022-08-12T07:16:51.964Z,101244.50
2022-08-12T07:19:20.611Z,101237.91
2022-08-12T07:22:01.867Z,101243.44
2022-08-12T07:24:31.228Z,101239.22
2022-08-12T07:26:59.012Z,101239.75
2022-08-12T07:30:02.761Z,101245.69
2022-08-12T07:32:15.600Z,101244.19
2022-08-12T07:34:43.319Z,101247.28
2022-08-12T07:37:10.773Z,101240.00
2022-08-12T07:39:50.608Z,101244.75
2022-08-12T07:42:25.261Z,101253.22
2022-08-12T07:44:54.955Z,101245.63
2022-08-12T07:47:23.038Z,101252.56
2022-08-12T07:50:05.804Z,101255.25
2022-08-12T07:52:35.437Z,101264.06
2022-08-12T07:55:04.217Z,101255.59
2022-08-12T07:57:34.531Z,101253.28
2022-08-12T08:00:06.035Z,101251.59
2022-08-12T08:02:38.322Z,101248.56
2022-08-12T08:05:06.031Z,101256.84
2022-08-12T08:07:33.437Z,101261.75
2022-08-12T08:10:06.752Z,101260.22
2022-08-12T08:12:52.759Z,101266.19
2022-08-12T08:15:38.687Z,101269.72
2022-08-12T08:18:13.252Z,101266.34
2022-08-12T08:20:45.079Z,101274.44
2022-08-12T08:23:17.976Z,101273.59
2022-08-12T08:25:45.919Z,101274.75
2022-08-12T08:28:17.148Z,101273.56
2022-08-12T08:30:46.368Z,101270.16
2022-08-12T08:33:22.729Z,101277.22
2022-08-12T08:35:54.359Z,101287.16
2022-08-12T08:38:32.717Z,101281.03
2022-08-12T08:42:17.302Z,101285.75
2022-08-12T08:44:11.722Z,101288.56
2022-08-12T08:46:44.432Z,101288.19
2022-08-12T08:49:12.118Z,101286.19
2022-08-12T08:51:40.327Z,101291.25
2022-08-12T08:54:08.737Z,101297.84
2022-08-12T08:56:46.345Z,101314.03
2022-08-12T08:59:14.303Z,101311.81
2022-08-12T09:01:44.411Z,101304.56
2022-08-12T09:05:07.427Z,101308.41
2022-08-12T09:07:17.948Z,101310.59
2022-08-12T09:10:02.999Z,101303.59
2022-08-12T09:12:54.673Z,101293.22
2022-08-12T09:15:34.933Z,101298.44
2022-08-12T09:18:09.491Z,101300.41
2022-08-12T09:20:40.188Z,101297.09
2022-08-12T09:23:59.616Z,101302.66
2022-08-12T09:26:15.063Z,101292.03
2022-08-12T09:28:54.100Z,101287.19
2022-08-12T09:32:06.549Z,101284.78
2022-08-12T09:34:29.490Z,101276.66
2022-08-12T09:37:19.442Z,101279.59
2022-08-12T09:40:04.206Z,101278.19
2022-08-12T09:43:15.582Z,101274.63
2022-08-12T09:46:06.209Z,101261.41
2022-08-12T09:48:39.235Z,101260.91
2022-08-12T09:51:16.655Z,101256.91
2022-08-12T09:54:05.499Z,101248.22
2022-08-12T09:56:58.729Z,101246.28
2022-08-12T10:00:17.148Z,101245.19
2022-08-12T10:02:52.944Z,101238.78
2022-08-12T10:04:57.851Z,101235.94
2022-08-12T10:07:25.401Z,101227.13
2022-08-12T10:10:22.324Z,101220.97
2022-08-12T10:13:22.775Z,101215.91
2022-08-12T10:16:05.642Z,101229.25
2022-08-12T10:18:51.883Z,101219.59
2022-08-12T10:21:23.302Z,101221.94
2022-08-12T10:23:56.634Z,101221.38
2022-08-12T10:26:44.599Z,101223.50
2022-08-12T10:32:57.367Z,101207.19
2022-08-12T10:35:31.427Z,101207.28
2022-08-12T10:38:34.720Z,101197.44
2022-08-12T10:41:12.325Z,101202.22
2022-08-12T10:43:56.352Z,101198.34
2022-08-12T10:46:30.901Z,101193.13
2022-08-12T10:49:06.998Z,101200.75
2022-08-12T10:52:32.892Z,101193.00
2022-08-12T10:54:40.328Z,101203.50
2022-08-12T10:57:09.522Z,101197.22
2022-08-12T11:00:34.540Z,101193.66
2022-08-12T11:04:19.711Z,101198.75
2022-08-12T11:07:06.018Z,101197.94
2022-08-12T11:08:36.676Z,101195.00
2022-08-12T11:10:56.142Z,101193.31
2022-08-12T11:13:45.838Z,101185.56
2022-08-12T11:16:19.544Z,101185.78
2022-08-12T11:18:55.309Z,101191.03
2022-08-12T11:21:56.056Z,101180.00
2022-08-12T11:24:30.738Z,101172.88
2022-08-12T11:27:00.530Z,101175.16
2022-08-12T11:30:05.937Z,101167.19
2022-08-12T11:32:16.240Z,101176.22
2022-08-12T11:34:52.524Z,101170.34
2022-08-12T11:37:25.376Z,101170.78
2022-08-12T11:42:46.022Z,101156.50
2022-08-12T11:45:16.882Z,101161.94
2022-08-12T11:47:44.715Z,101156.50
2022-08-12T11:50:19.469Z,101150.22
2022-08-12T11:52:56.073Z,101149.34
2022-08-12T11:55:25.544Z,101158.41
2022-08-12T11:58:15.194Z,101142.84
2022-08-12T12:03:44.126Z,101139.06
2022-08-12T12:06:16.189Z,101128.78
2022-08-12T12:08:50.976Z,101119.97
2022-08-12T12:11:21.243Z,101122.06
2022-08-12T12:14:08.554Z,101120.81
2022-08-12T12:16:38.154Z,101111.59
2022-08-12T12:19:08.816Z,101106.72
2022-08-12T12:21:48.022Z,101104.22
2022-08-12T12:24:22.153Z,101097.69
2022-08-12T12:27:00.495Z,101101.47
2022-08-12T12:30:19.198Z,101101.69
2022-08-12T12:32:18.484Z,101094.44
2022-08-12T12:35:13.981Z,101093.38
2022-08-12T12:38:03.752Z,101091.81
2022-08-12T12:40:34.452Z,101089.34
2022-08-12T12:43:05.249Z,101082.22
2022-08-12T12:45:35.581Z,101083.91
2022-08-12T12:48:08.579Z,101079.50
2022-08-12T12:50:42.734Z,101077.28
2022-08-12T12:54:08.929Z,101084.25
2022-08-12T12:56:12.216Z,101075.19
2022-08-12T12:58:40.214Z,101073.56
2022-08-12T13:01:25.527Z,101064.25
2022-08-12T13:04:02.027Z,101066.59
2022-08-12T13:06:31.677Z,101067.41
2022-08-12T13:09:03.195Z,101071.34
2022-08-12T13:11:41.421Z,101060.81
2022-08-12T13:14:29.063Z,101058.72
2022-08-12T13:17:02.587Z,101057.22
2022-08-12T13:19:45.261Z,101049.34
2022-08-12T13:22:19.233Z,101041.06
2022-08-12T13:24:55.678Z,101055.44
2022-08-12T13:27:34.941Z,101052.31
2022-08-12T13:30:13.003Z,101052.72
2022-08-12T13:32:42.680Z,101050.16
2022-08-12T13:35:20.272Z,101050.50
2022-08-12T13:37:59.205Z,101047.38
2022-08-12T13:40:33.284Z,101038.72
2022-08-12T13:43:02.322Z,101044.56
2022-08-12T13:45:34.180Z,101038.06
2022-08-12T13:48:03.928Z,101034.25
2022-08-12T13:50:36.536Z,101030.00
2022-08-12T13:53:23.068Z,101031.03
2022-08-12T13:55:59.731Z,101019.25
2022-08-12T13:58:30.269Z,101024.31
2022-08-12T14:00:58.728Z,101031.34
2022-08-12T14:03:28.601Z,101029.53
2022-08-12T14:06:15.452Z,101032.81
2022-08-12T14:08:43.607Z,101032.75
2022-08-12T14:11:13.160Z,101030.19
2022-08-12T14:14:03.717Z,101025.63
2022-08-12T14:16:46.669Z,101019.53
2022-08-12T14:19:24.194Z,101025.44
2022-08-12T14:22:00.988Z,101020.56
2022-08-12T14:24:40.820Z,101014.78
2022-08-12T14:27:12.630Z,101005.75
2022-08-12T14:30:05.350Z,101005.09
2022-08-12T14:32:37.040Z,101004.97
2022-08-12T14:35:09.888Z,101009.78
2022-08-12T14:37:57.571Z,101003.47
2022-08-12T14:40:29.617Z,101009.88
2022-08-12T14:42:59.756Z,101000.56
2022-08-12T14:45:45.114Z,101002.13
2022-08-12T14:48:18.593Z,101002.50
2022-08-12T14:51:03.182Z,101000.34
2022-08-12T14:59:56.464Z,100992.63
2022-08-12T15:02:20.393Z,100989.03
2022-08-12T15:04:59.521Z,100984.59
2022-08-12T15:07:33.507Z,100981.75
2022-08-12T15:10:13.344Z,100978.16
2022-08-12T15:12:40.904Z,100983.03
2022-08-12T15:15:09.139Z,100986.13
2022-08-12T15:17:38.840Z,100980.66
2022-08-12T15:20:31.832Z,100982.88
2022-08-12T15:22:56.532Z,100980.50
2022-08-12T15:25:27.077Z,100983.09
2022-08-12T15:28:05.146Z,100977.13
2022-08-12T15:30:40.695Z,100981.53
2022-08-12T15:33:12.893Z,100975.22
2022-08-12T15:35:53.214Z,100972.25
2022-08-12T15:38:31.178Z,100974.44
2022-08-12T15:41:00.045Z,100967.03
2022-08-12T15:43:51.521Z,100982.78
2022-08-12T15:46:18.653Z,100979.13
2022-08-12T15:48:55.458Z,100980.53
2022-08-12T15:51:59.597Z,100988.16
2022-08-12T15:54:30.947Z,100983.75
2022-08-12T15:57:08.317Z,100981.16
2022-08-12T16:00:03.842Z,100988.16
2022-08-12T16:02:26.962Z,100980.31
2022-08-12T16:04:55.127Z,100969.00
2022-08-12T16:07:26.046Z,100976.75
2022-08-12T16:10:09.328Z,100971.00
2022-08-12T16:12:50.281Z,100968.28
2022-08-12T16:15:25.091Z,100966.72
2022-08-12T16:18:18.093Z,100967.69
2022-08-12T16:20:46.438Z,100962.75
2022-08-12T16:23:36.440Z,100967.00
2022-08-12T16:26:14.419Z,100957.72
2022-08-12T16:28:48.705Z,100950.28
2022-08-12T16:31:24.839Z,100943.13
2022-08-12T16:34:00.408Z,100959.28
2022-08-12T16:36:29.713Z,100949.03
2022-08-12T16:39:01.333Z,100946.16
2022-08-12T16:41:39.473Z,100939.06
2022-08-12T16:44:08.853Z,100939.81
2022-08-12T16:46:37.561Z,100930.31
2022-08-12T16:49:09.098Z,100922.97
2022-08-12T16:51:46.490Z,100928.78
2022-08-12T16:54:26.635Z,100921.88
2022-08-12T16:57:09.443Z,100923.81
2022-08-12T16:59:53.509Z,100931.47
2022-08-12T17:02:33.927Z,100936.81
2022-08-12T17:05:05.137Z,100928.28
2022-08-12T17:07:38.026Z,100929.69
2022-08-12T17:10:08.099Z,100935.19
2022-08-12T17:12:37.352Z,100943.63
2022-08-12T17:15:50.558Z,100945.13
2022-08-12T17:18:38.924Z,100961.34
2022-08-12T17:20:47.214Z,100962.22
2022-08-12T17:23:16.862Z,100957.25
2022-08-12T17:25:52.881Z,100955.41
2022-08-12T17:28:23.740Z,100963.78
2022-08-12T17:30:59.786Z,100964.00
2022-08-12T17:33:27.835Z,100969.03
2022-08-12T17:36:02.922Z,100982.44
2022-08-12T17:38:30.621Z,100981.84
2022-08-12T17:40:58.148Z,100993.38
2022-08-12T17:43:54.981Z,101019.97
2022-08-12T17:46:23.956Z,101046.16
2022-08-12T17:48:59.523Z,101052.44
2022-08-12T17:51:31.561Z,101043.22
2022-08-12T17:54:11.112Z,101035.66
2022-08-12T17:56:41.103Z,101042.72
2022-08-12T17:59:12.748Z,101069.13
2022-08-12T18:01:45.433Z,101089.91
2022-08-12T18:04:21.432Z,101096.69
2022-08-12T18:06:51.211Z,101119.88
2022-08-12T18:09:21.771Z,101143.34
2022-08-12T18:12:12.097Z,101151.53
2022-08-12T18:14:41.133Z,101149.34
2022-08-12T18:17:10.141Z,101163.03
2022-08-12T18:20:04.995Z,101181.19
2022-08-12T18:22:30.321Z,101187.88
2022-08-12T18:25:04.174Z,101202.47
2022-08-12T18:27:43.517Z,101226.78
2022-08-12T18:30:20.352Z,101232.41
2022-08-12T18:33:04.327Z,101239.69
2022-08-12T18:35:47.064Z,101245.22
2022-08-12T18:38:22.593Z,101233.19
2022-08-12T18:41:21.844Z,101221.72
2022-08-12T18:44:09.396Z,101212.81
2022-08-12T18:46:42.702Z,101219.63
2022-08-12T18:49:17.852Z,101233.06
2022-08-12T18:52:04.066Z,101252.50
2022-08-12T18:54:48.779Z,101263.88
2022-08-12T18:58:07.129Z,101271.59
2022-08-12T19:00:15.962Z,101269.59
2022-08-12T19:02:46.366Z,101265.88
2022-08-12T19:05:17.564Z,101265.38
2022-08-12T19:08:00.185Z,101264.56
2022-08-12T19:10:31.054Z,101262.91
2022-08-12T19:13:23.516Z,101249.38
2022-08-12T19:15:57.788Z,101232.31
2022-08-12T19:18:29.174Z,101214.03
2022-08-12T19:20:59.135Z,101200.53
2022-08-12T19:23:35.438Z,101191.91
2022-08-12T19:26:05.345Z,101177.22
2022-08-12T19:28:38.602Z,101177.78
2022-08-12T19:31:45.436Z,101222.06
2022-08-12T19:35:32.895Z,101289.84
2022-08-12T19:38:02.498Z,101373.16
2022-08-12T19:40:30.928Z,101406.13
2022-08-12T19:43:13.475Z,101395.81
2022-08-12T19:45:53.169Z,101354.28
2022-08-12T19:48:22.293Z,101333.66
2022-08-12T19:50:53.487Z,101352.03
2022-08-12T19:53:23.650Z,101374.00
2022-08-12T19:55:53.133Z,101374.13
2022-08-12T19:58:22.367Z,101358.94
2022-08-12T20:00:53.248Z,101346.34
2022-08-12T20:03:39.492Z,101346.28
2022-08-12T20:06:16.262Z,101351.94
2022-08-12T20:08:55.838Z,101357.75
2022-08-12T20:12:13.026Z,101355.69
2022-08-12T20:14:19.200Z,101334.59
2022-08-12T20:16:57.852Z,101307.22
2022-08-12T20:20:04.051Z,101307.50
2022-08-12T20:22:29.481Z,101316.63
2022-08-12T20:25:08.539Z,101333.19
2022-08-12T20:28:02.794Z,101362.25
2022-08-12T20:30:52.580Z,101353.84
2022-08-12T20:33:17.566Z,101338.53
2022-08-12T20:36:12.951Z,101336.69
2022-08-12T20:38:39.650Z,101349.25
2022-08-12T20:41:16.558Z,101347.44
2022-08-12T20:43:49.689Z,101352.75
2022-08-12T20:46:19.175Z,101363.31
2022-08-12T20:48:54.758Z,101350.06
2022-08-12T20:51:27.555Z,101328.22
2022-08-12T20:53:59.441Z,101320.03
2022-08-12T20:56:37.553Z,101319.81
2022-08-12T20:59:11.707Z,101316.41
2022-08-12T21:01:48.642Z,101327.19
2022-08-12T21:04:36.821Z,101340.22
2022-08-12T21:07:10.381Z,101356.53
2022-08-12T21:09:44.414Z,101362.53
2022-08-12T21:12:31.391Z,101366.50
2022-08-12T21:15:23.706Z,101371.50
2022-08-12T21:18:11.378Z,101368.34
2022-08-12T21:20:54.466Z,101359.50
2022-08-12T21:23:22.874Z,101357.78
2022-08-12T21:26:01.121Z,101349.00
2022-08-12T21:28:31.005Z,101342.44
2022-08-12T21:32:34.507Z,101329.38
2022-08-12T21:34:08.251Z,101308.28
2022-08-12T21:36:43.327Z,101320.81
2022-08-12T21:39:26.770Z,101315.53
2022-08-12T21:42:06.639Z,101325.09
2022-08-12T21:45:46.961Z,101311.22
2022-08-12T21:47:24.974Z,101318.50
2022-08-12T21:50:03.285Z,101324.31
2022-08-12T21:52:40.597Z,101324.31
2022-08-12T21:55:17.215Z,101327.38
2022-08-12T21:57:53.137Z,101329.53
2022-08-12T22:00:31.798Z,101327.00
2022-08-12T22:04:01.626Z,101320.47
2022-08-12T22:06:26.061Z,101318.91
2022-08-12T22:09:03.538Z,101308.44
2022-08-12T22:11:42.431Z,101287.03
2022-08-12T22:14:21.869Z,101280.53
2022-08-12T22:16:53.764Z,101279.78
2022-08-12T22:19:22.777Z,101279.94
2022-08-12T22:21:53.346Z,101280.69
2022-08-12T22:24:26.483Z,101283.81
2022-08-12T22:27:28.202Z,101280.84
2022-08-12T22:30:16.785Z,101269.22
2022-08-12T22:32:49.923Z,101261.47
2022-08-12T22:35:55.592Z,101256.25
2022-08-12T22:38:24.779Z,101261.72
2022-08-12T22:40:54.979Z,101275.47
2022-08-12T22:43:58.745Z,101284.22
2022-08-12T22:46:52.451Z,101278.31
2022-08-12T22:49:44.779Z,101276.31
2022-08-12T22:52:18.445Z,101282.00
2022-08-12T22:55:02.688Z,101281.28
2022-08-12T22:57:48.983Z,101292.22
2022-08-12T23:00:27.548Z,101283.44
2022-08-12T23:03:00.875Z,101277.78
2022-08-12T23:05:49.304Z,101263.91
2022-08-12T23:08:29.943Z,101265.59
2022-08-12T23:11:05.796Z,101264.34
2022-08-12T23:13:54.734Z,101272.84
2022-08-12T23:16:31.498Z,101287.16
2022-08-12T23:19:10.554Z,101284.34
2022-08-12T23:22:03.749Z,101280.66
2022-08-12T23:24:35.593Z,101277.69
2022-08-12T23:27:22.110Z,101275.00
2022-08-12T23:30:17.299Z,101268.94
2022-08-12T23:32:37.150Z,101263.25
2022-08-12T23:35:06.929Z,101251.34
2022-08-12T23:37:46.435Z,101256.63
2022-08-12T23:40:17.975Z,101256.59
2022-08-12T23:42:47.052Z,101254.03
2022-08-12T23:45:19.069Z,101252.47
2022-08-12T23:47:59.819Z,101248.56
2022-08-12T23:50:34.506Z,101232.41
2022-08-12T23:53:22.708Z,101230.31
2022-08-12T23:55:50.627Z,101222.41
2022-08-12T23:58:26.105Z,101220.56
